Meath Environmental Platform

Observations for Trim Patrick St

Time AQI Temp °C Hum % Pres Pa CO μg/m³ H₂S μg/m³ NO μg/m³ NO₂ μg/m³ O₃ μg/m³ SO₂ μg/m³ PM1 μg/m³ PM2.5 μg/m³ PM10 μg/m³
Monday 3 August 2026
07:33 1 17.8 72 38,460 0.16 0 1.55 13.48 48.25 0 4.57 10.01 11.01
07:32 1 17.7 72 38,460 0.15 0 1.59 12.89 47.48 0 4.57 10.01 11.01
07:31 1 17.7 72 38,460 0.17 0 1.6 11.68 43.89 0 4.57 7.86 8.65
07:30 1 17.7 72 38,460 0.15 0 1.51 13.83 45.2 0 4.57 9.29 10.22
07:27 1 17.6 73 38,460 0.16 0 1.76 12.95 49.64 0 5.43 8.56 9.41
07:26 1 17.6 72 38,460 0.17 0 1.83 11.07 46.28 0 4.57 8.59 9.45
07:25 1 17.6 72 38,460 0.15 0 1.82 10.09 46.18 0 4.57 9.29 10.22
07:24 1 17.5 72 38,460 0.16 0 1.77 9.46 47.55 0 4.57 7.86 8.64
07:23 1 17.5 72 38,460 0.18 0 1.99 10.83 45.1 0 4.57 8.57 9.43
07:22 1 17.5 73 38,460 0.17 0 2.06 11.26 49.17 0 3.71 7.11 7.82
07:21 1 17.5 73 38,460 0.17 0 1.86 10.71 46.37 0 4.57 9.26 10.18
07:20 1 17.4 73 38,460 0.18 0 1.91 10.78 47.19 0 3.71 8.54 9.39
07:19 1 17.4 73 38,460 0.19 0 1.87 12.6 40.89 0 3.71 7.81 8.6
07:15 1 17.3 73 38,460 0.17 0 1.97 9.35 44.69 0 3.71 8.54 9.39
07:14 1 17.3 73 38,460 0.19 0 1.88 11.11 46.94 0 3.71 7.79 8.57
07:13 1 17.2 74 38,460 0.19 0 2 10.02 49 0 2.86 7.07 7.78
07:12 1 17.2 73 38,460 0.18 0 2.01 10.02 40.95 0 4.57 8.52 9.37
07:11 1 17.2 74 38,460 0.19 0 1.94 11.67 46.36 0 4.57 8.48 9.33
07:10 1 17.2 74 38,460 0.19 0 1.78 11.53 42.99 0 4.57 9.2 10.12
07:09 1 17.1 74 38,460 0.2 0 1.83 8.48 47.35 0 3.71 7.05 7.76